sensor_id;sensor_type;location;lat;lon;timestamp;P1;durP1;ratioP1;P2;durP2;ratioP2
35975;SDS011;22055;0.000;0.000;2022-12-18T00:01:33;5.28;;;2.90;;
35975;SDS011;22055;0.000;0.000;2022-12-18T00:04:03;4.22;;;2.70;;
35975;SDS011;22055;0.000;0.000;2022-12-18T00:06:32;3.90;;;2.60;;
35975;SDS011;22055;0.000;0.000;2022-12-18T00:09:01;3.75;;;3.03;;
35975;SDS011;22055;0.000;0.000;2022-12-18T00:11:30;4.10;;;2.75;;
35975;SDS011;22055;0.000;0.000;2022-12-18T00:13:59;4.28;;;2.80;;
35975;SDS011;22055;0.000;0.000;2022-12-18T00:16:39;3.75;;;2.50;;
35975;SDS011;22055;0.000;0.000;2022-12-18T00:19:08;3.03;;;2.42;;
35975;SDS011;22055;0.000;0.000;2022-12-18T00:21:43;4.25;;;2.50;;
35975;SDS011;22055;0.000;0.000;2022-12-18T00:24:10;4.65;;;2.95;;
35975;SDS011;22055;0.000;0.000;2022-12-18T00:26:38;4.72;;;2.70;;
35975;SDS011;22055;0.000;0.000;2022-12-18T00:29:10;3.38;;;2.63;;
35975;SDS011;22055;0.000;0.000;2022-12-18T00:31:43;4.25;;;2.88;;
35975;SDS011;22055;0.000;0.000;2022-12-18T00:34:12;4.70;;;2.83;;
35975;SDS011;22055;0.000;0.000;2022-12-18T00:36:40;4.00;;;2.65;;
35975;SDS011;22055;0.000;0.000;2022-12-18T00:39:10;4.65;;;2.90;;
35975;SDS011;22055;0.000;0.000;2022-12-18T00:41:38;4.50;;;2.90;;
35975;SDS011;22055;0.000;0.000;2022-12-18T00:44:24;3.83;;;2.70;;
35975;SDS011;22055;0.000;0.000;2022-12-18T00:46:52;4.05;;;3.00;;
35975;SDS011;22055;0.000;0.000;2022-12-18T00:49:21;3.95;;;2.90;;
35975;SDS011;22055;0.000;0.000;2022-12-18T00:51:49;4.35;;;3.08;;
35975;SDS011;22055;0.000;0.000;2022-12-18T00:54:18;5.80;;;3.30;;
35975;SDS011;22055;0.000;0.000;2022-12-18T00:56:47;6.07;;;2.58;;
35975;SDS011;22055;0.000;0.000;2022-12-18T00:59:15;3.75;;;2.65;;
35975;SDS011;22055;0.000;0.000;2022-12-18T01:01:43;4.47;;;2.80;;
35975;SDS011;22055;0.000;0.000;2022-12-18T01:04:14;3.90;;;2.60;;
35975;SDS011;22055;0.000;0.000;2022-12-18T01:06:43;3.60;;;2.42;;
35975;SDS011;22055;0.000;0.000;2022-12-18T01:09:11;3.47;;;2.53;;
35975;SDS011;22055;0.000;0.000;2022-12-18T01:11:39;2.67;;;2.35;;
35975;SDS011;22055;0.000;0.000;2022-12-18T01:14:09;4.53;;;2.63;;
35975;SDS011;22055;0.000;0.000;2022-12-18T01:19:40;5.03;;;2.50;;
35975;SDS011;22055;0.000;0.000;2022-12-18T01:22:08;3.65;;;2.60;;
35975;SDS011;22055;0.000;0.000;2022-12-18T01:24:48;3.40;;;2.35;;
35975;SDS011;22055;0.000;0.000;2022-12-18T01:30:09;3.42;;;2.70;;
35975;SDS011;22055;0.000;0.000;2022-12-18T01:32:39;3.78;;;2.63;;
35975;SDS011;22055;0.000;0.000;2022-12-18T01:38:42;3.80;;;2.85;;
35975;SDS011;22055;0.000;0.000;2022-12-18T01:41:09;3.33;;;2.72;;
35975;SDS011;22055;0.000;0.000;2022-12-18T01:43:44;3.90;;;2.85;;
35975;SDS011;22055;0.000;0.000;2022-12-18T01:46:13;4.00;;;2.88;;
35975;SDS011;22055;0.000;0.000;2022-12-18T01:48:42;3.00;;;2.50;;
35975;SDS011;22055;0.000;0.000;2022-12-18T01:57:19;4.03;;;2.90;;
35975;SDS011;22055;0.000;0.000;2022-12-18T01:59:53;4.50;;;3.08;;
35975;SDS011;22055;0.000;0.000;2022-12-18T02:02:37;4.90;;;3.00;;
35975;SDS011;22055;0.000;0.000;2022-12-18T02:05:05;3.08;;;2.60;;
35975;SDS011;22055;0.000;0.000;2022-12-18T02:07:39;4.68;;;3.05;;
35975;SDS011;22055;0.000;0.000;2022-12-18T02:10:22;4.40;;;2.83;;
35975;SDS011;22055;0.000;0.000;2022-12-18T02:12:56;4.10;;;2.80;;
35975;SDS011;22055;0.000;0.000;2022-12-18T02:15:27;4.25;;;2.65;;
35975;SDS011;22055;0.000;0.000;2022-12-18T02:17:58;3.70;;;2.88;;
35975;SDS011;22055;0.000;0.000;2022-12-18T02:21:07;2.95;;;2.55;;
35975;SDS011;22055;0.000;0.000;2022-12-18T02:32:02;2.75;;;2.30;;
35975;SDS011;22055;0.000;0.000;2022-12-18T02:34:31;2.85;;;2.00;;
35975;SDS011;22055;0.000;0.000;2022-12-18T02:37:00;3.33;;;2.55;;
35975;SDS011;22055;0.000;0.000;2022-12-18T02:39:30;3.88;;;2.58;;
35975;SDS011;22055;0.000;0.000;2022-12-18T02:42:26;3.05;;;2.35;;
35975;SDS011;22055;0.000;0.000;2022-12-18T02:44:56;3.17;;;1.98;;
35975;SDS011;22055;0.000;0.000;2022-12-18T02:47:25;2.53;;;2.20;;
35975;SDS011;22055;0.000;0.000;2022-12-18T02:57:58;3.45;;;2.20;;
35975;SDS011;22055;0.000;0.000;2022-12-18T03:03:45;3.45;;;2.28;;
35975;SDS011;22055;0.000;0.000;2022-12-18T03:06:40;3.33;;;2.30;;
35975;SDS011;22055;0.000;0.000;2022-12-18T03:09:19;3.25;;;2.25;;
35975;SDS011;22055;0.000;0.000;2022-12-18T03:12:17;3.78;;;2.45;;
35975;SDS011;22055;0.000;0.000;2022-12-18T03:17:40;3.25;;;2.33;;
35975;SDS011;22055;0.000;0.000;2022-12-18T03:20:10;4.47;;;2.50;;
35975;SDS011;22055;0.000;0.000;2022-12-18T03:22:41;3.17;;;2.30;;
35975;SDS011;22055;0.000;0.000;2022-12-18T03:25:10;3.30;;;2.20;;
35975;SDS011;22055;0.000;0.000;2022-12-18T03:27:40;2.50;;;2.13;;
35975;SDS011;22055;0.000;0.000;2022-12-18T03:30:11;2.20;;;2.00;;
35975;SDS011;22055;0.000;0.000;2022-12-18T03:32:59;3.10;;;2.30;;
35975;SDS011;22055;0.000;0.000;2022-12-18T03:35:30;3.25;;;2.10;;
35975;SDS011;22055;0.000;0.000;2022-12-18T03:38:24;2.25;;;1.90;;
35975;SDS011;22055;0.000;0.000;2022-12-18T03:41:12;1.98;;;1.70;;
35975;SDS011;22055;0.000;0.000;2022-12-18T03:43:52;2.70;;;2.05;;
35975;SDS011;22055;0.000;0.000;2022-12-18T03:46:54;2.40;;;1.95;;
35975;SDS011;22055;0.000;0.000;2022-12-18T03:49:35;2.90;;;1.98;;
35975;SDS011;22055;0.000;0.000;2022-12-18T03:52:33;2.25;;;1.95;;
35975;SDS011;22055;0.000;0.000;2022-12-18T03:55:03;2.70;;;2.00;;
35975;SDS011;22055;0.000;0.000;2022-12-18T03:57:33;2.60;;;2.10;;
35975;SDS011;22055;0.000;0.000;2022-12-18T04:00:05;2.88;;;2.30;;
35975;SDS011;22055;0.000;0.000;2022-12-18T04:02:43;3.10;;;2.03;;
35975;SDS011;22055;0.000;0.000;2022-12-18T04:05:21;2.83;;;2.17;;
35975;SDS011;22055;0.000;0.000;2022-12-18T04:07:53;3.25;;;2.55;;
35975;SDS011;22055;0.000;0.000;2022-12-18T04:10:28;2.67;;;2.00;;
35975;SDS011;22055;0.000;0.000;2022-12-18T04:12:56;4.20;;;2.30;;
35975;SDS011;22055;0.000;0.000;2022-12-18T04:15:25;2.90;;;2.17;;
35975;SDS011;22055;0.000;0.000;2022-12-18T04:17:53;3.22;;;2.08;;
35975;SDS011;22055;0.000;0.000;2022-12-18T04:20:21;3.30;;;2.00;;
35975;SDS011;22055;0.000;0.000;2022-12-18T04:22:49;3.05;;;1.98;;
35975;SDS011;22055;0.000;0.000;2022-12-18T04:25:17;3.85;;;2.13;;
35975;SDS011;22055;0.000;0.000;2022-12-18T04:27:46;2.95;;;2.13;;
35975;SDS011;22055;0.000;0.000;2022-12-18T04:30:15;2.70;;;2.05;;
35975;SDS011;22055;0.000;0.000;2022-12-18T04:32:42;3.28;;;2.28;;
35975;SDS011;22055;0.000;0.000;2022-12-18T04:35:10;2.47;;;2.10;;
35975;SDS011;22055;0.000;0.000;2022-12-18T04:37:38;3.05;;;2.10;;
35975;SDS011;22055;0.000;0.000;2022-12-18T04:40:05;2.85;;;2.03;;
35975;SDS011;22055;0.000;0.000;2022-12-18T04:42:33;1.60;;;1.50;;
35975;SDS011;22055;0.000;0.000;2022-12-18T04:45:01;4.47;;;2.35;;
35975;SDS011;22055;0.000;0.000;2022-12-18T04:47:29;2.95;;;2.00;;
35975;SDS011;22055;0.000;0.000;2022-12-18T04:49:59;2.00;;;1.77;;
35975;SDS011;22055;0.000;0.000;2022-12-18T04:52:37;2.10;;;1.80;;
35975;SDS011;22055;0.000;0.000;2022-12-18T04:55:05;2.45;;;1.90;;
35975;SDS011;22055;0.000;0.000;2022-12-18T04:57:33;2.42;;;1.95;;
35975;SDS011;22055;0.000;0.000;2022-12-18T05:00:02;2.58;;;1.90;;
35975;SDS011;22055;0.000;0.000;2022-12-18T05:02:29;2.28;;;1.67;;
35975;SDS011;22055;0.000;0.000;2022-12-18T05:08:16;2.47;;;1.88;;
35975;SDS011;22055;0.000;0.000;2022-12-18T05:10:43;2.38;;;1.75;;
35975;SDS011;22055;0.000;0.000;2022-12-18T05:13:11;2.70;;;1.98;;
35975;SDS011;22055;0.000;0.000;2022-12-18T05:15:39;2.78;;;1.90;;
35975;SDS011;22055;0.000;0.000;2022-12-18T05:18:07;1.75;;;1.30;;
35975;SDS011;22055;0.000;0.000;2022-12-18T05:20:35;1.80;;;1.60;;
35975;SDS011;22055;0.000;0.000;2022-12-18T05:23:05;2.30;;;1.90;;
35975;SDS011;22055;0.000;0.000;2022-12-18T05:25:34;1.83;;;1.70;;
35975;SDS011;22055;0.000;0.000;2022-12-18T05:28:02;3.15;;;2.00;;
35975;SDS011;22055;0.000;0.000;2022-12-18T05:30:32;2.00;;;1.80;;
35975;SDS011;22055;0.000;0.000;2022-12-18T05:33:00;3.58;;;2.08;;
35975;SDS011;22055;0.000;0.000;2022-12-18T05:35:28;2.20;;;1.83;;
35975;SDS011;22055;0.000;0.000;2022-12-18T05:37:56;2.50;;;1.80;;
35975;SDS011;22055;0.000;0.000;2022-12-18T05:40:24;3.08;;;2.25;;
35975;SDS011;22055;0.000;0.000;2022-12-18T05:42:52;2.45;;;2.03;;
35975;SDS011;22055;0.000;0.000;2022-12-18T05:45:22;3.40;;;2.15;;
35975;SDS011;22055;0.000;0.000;2022-12-18T05:47:50;2.20;;;2.00;;
35975;SDS011;22055;0.000;0.000;2022-12-18T05:50:18;3.08;;;2.30;;
35975;SDS011;22055;0.000;0.000;2022-12-18T05:52:49;3.28;;;2.20;;
35975;SDS011;22055;0.000;0.000;2022-12-18T05:55:18;2.80;;;2.10;;
35975;SDS011;22055;0.000;0.000;2022-12-18T05:57:46;3.42;;;2.40;;
35975;SDS011;22055;0.000;0.000;2022-12-18T06:00:13;2.70;;;2.08;;
35975;SDS011;22055;0.000;0.000;2022-12-18T06:02:41;2.75;;;2.00;;
35975;SDS011;22055;0.000;0.000;2022-12-18T06:05:10;2.88;;;2.05;;
35975;SDS011;22055;0.000;0.000;2022-12-18T06:07:38;2.55;;;2.00;;
35975;SDS011;22055;0.000;0.000;2022-12-18T06:10:06;2.42;;;1.85;;
35975;SDS011;22055;0.000;0.000;2022-12-18T06:12:56;2.85;;;2.00;;
35975;SDS011;22055;0.000;0.000;2022-12-18T06:15:24;3.33;;;2.00;;
35975;SDS011;22055;0.000;0.000;2022-12-18T06:17:52;2.65;;;1.90;;
35975;SDS011;22055;0.000;0.000;2022-12-18T06:20:21;2.58;;;1.90;;
35975;SDS011;22055;0.000;0.000;2022-12-18T06:22:48;1.45;;;1.35;;
35975;SDS011;22055;0.000;0.000;2022-12-18T06:25:17;1.90;;;1.70;;
35975;SDS011;22055;0.000;0.000;2022-12-18T06:28:00;2.08;;;1.80;;
35975;SDS011;22055;0.000;0.000;2022-12-18T06:30:29;2.63;;;1.83;;
35975;SDS011;22055;0.000;0.000;2022-12-18T06:32:56;4.25;;;1.90;;
35975;SDS011;22055;0.000;0.000;2022-12-18T06:35:24;2.25;;;1.63;;
35975;SDS011;22055;0.000;0.000;2022-12-18T06:37:53;1.95;;;1.70;;
35975;SDS011;22055;0.000;0.000;2022-12-18T06:40:21;2.25;;;1.65;;
35975;SDS011;22055;0.000;0.000;2022-12-18T06:42:52;2.00;;;1.58;;
35975;SDS011;22055;0.000;0.000;2022-12-18T06:45:20;1.80;;;1.67;;
35975;SDS011;22055;0.000;0.000;2022-12-18T06:47:56;1.90;;;1.70;;
35975;SDS011;22055;0.000;0.000;2022-12-18T06:50:24;2.20;;;1.80;;
35975;SDS011;22055;0.000;0.000;2022-12-18T06:52:56;2.92;;;1.95;;
35975;SDS011;22055;0.000;0.000;2022-12-18T06:55:24;2.28;;;1.85;;
35975;SDS011;22055;0.000;0.000;2022-12-18T06:57:52;2.75;;;2.00;;
35975;SDS011;22055;0.000;0.000;2022-12-18T07:00:22;1.95;;;1.67;;
35975;SDS011;22055;0.000;0.000;2022-12-18T07:02:50;2.15;;;1.83;;
35975;SDS011;22055;0.000;0.000;2022-12-18T07:05:18;1.88;;;1.70;;
35975;SDS011;22055;0.000;0.000;2022-12-18T07:07:49;2.95;;;2.13;;
35975;SDS011;22055;0.000;0.000;2022-12-18T07:10:17;3.33;;;2.25;;
35975;SDS011;22055;0.000;0.000;2022-12-18T07:12:46;2.72;;;2.10;;
35975;SDS011;22055;0.000;0.000;2022-12-18T07:15:15;3.10;;;2.03;;
35975;SDS011;22055;0.000;0.000;2022-12-18T07:17:45;2.88;;;2.03;;
35975;SDS011;22055;0.000;0.000;2022-12-18T07:20:12;2.00;;;1.75;;
35975;SDS011;22055;0.000;0.000;2022-12-18T07:25:50;2.78;;;2.03;;
35975;SDS011;22055;0.000;0.000;2022-12-18T07:28:21;2.72;;;1.80;;
35975;SDS011;22055;0.000;0.000;2022-12-18T07:30:50;3.83;;;2.40;;
35975;SDS011;22055;0.000;0.000;2022-12-18T07:33:17;2.50;;;2.03;;
35975;SDS011;22055;0.000;0.000;2022-12-18T07:35:45;3.08;;;2.35;;
35975;SDS011;22055;0.000;0.000;2022-12-18T07:38:13;3.00;;;2.10;;
35975;SDS011;22055;0.000;0.000;2022-12-18T07:40:41;2.40;;;2.20;;
35975;SDS011;22055;0.000;0.000;2022-12-18T07:43:08;2.90;;;1.98;;
35975;SDS011;22055;0.000;0.000;2022-12-18T07:45:37;2.17;;;1.67;;
35975;SDS011;22055;0.000;0.000;2022-12-18T07:48:08;2.70;;;2.00;;
35975;SDS011;22055;0.000;0.000;2022-12-18T07:50:39;2.63;;;1.77;;
35975;SDS011;22055;0.000;0.000;2022-12-18T07:53:24;2.22;;;1.83;;
35975;SDS011;22055;0.000;0.000;2022-12-18T07:59:02;2.67;;;2.03;;
35975;SDS011;22055;0.000;0.000;2022-12-18T08:01:30;2.78;;;1.90;;
35975;SDS011;22055;0.000;0.000;2022-12-18T08:04:03;1.58;;;1.48;;
35975;SDS011;22055;0.000;0.000;2022-12-18T08:06:31;3.05;;;2.00;;
35975;SDS011;22055;0.000;0.000;2022-12-18T08:09:01;2.20;;;1.80;;
35975;SDS011;22055;0.000;0.000;2022-12-18T08:11:30;2.58;;;1.85;;
35975;SDS011;22055;0.000;0.000;2022-12-18T08:13:58;1.85;;;1.67;;
35975;SDS011;22055;0.000;0.000;2022-12-18T08:16:27;3.08;;;1.90;;
35975;SDS011;22055;0.000;0.000;2022-12-18T08:18:54;2.22;;;1.75;;
35975;SDS011;22055;0.000;0.000;2022-12-18T08:21:26;1.70;;;1.50;;
35975;SDS011;22055;0.000;0.000;2022-12-18T08:23:59;2.30;;;1.70;;
35975;SDS011;22055;0.000;0.000;2022-12-18T08:26:40;2.53;;;1.80;;
35975;SDS011;22055;0.000;0.000;2022-12-18T08:29:20;1.95;;;1.75;;
35975;SDS011;22055;0.000;0.000;2022-12-18T08:31:55;2.67;;;1.85;;
35975;SDS011;22055;0.000;0.000;2022-12-18T08:34:23;2.00;;;1.65;;
35975;SDS011;22055;0.000;0.000;2022-12-18T08:36:52;1.40;;;1.30;;
35975;SDS011;22055;0.000;0.000;2022-12-18T08:39:20;2.03;;;1.65;;
35975;SDS011;22055;0.000;0.000;2022-12-18T08:41:48;2.28;;;1.77;;
35975;SDS011;22055;0.000;0.000;2022-12-18T08:44:34;2.00;;;1.75;;
35975;SDS011;22055;0.000;0.000;2022-12-18T08:47:06;1.90;;;1.55;;
35975;SDS011;22055;0.000;0.000;2022-12-18T08:49:59;1.50;;;1.40;;
35975;SDS011;22055;0.000;0.000;2022-12-18T08:52:31;1.63;;;1.50;;
35975;SDS011;22055;0.000;0.000;2022-12-18T08:54:59;2.30;;;1.70;;
35975;SDS011;22055;0.000;0.000;2022-12-18T08:57:28;1.88;;;1.50;;
35975;SDS011;22055;0.000;0.000;2022-12-18T08:59:58;1.85;;;1.50;;
35975;SDS011;22055;0.000;0.000;2022-12-18T09:02:26;2.38;;;1.85;;
35975;SDS011;22055;0.000;0.000;2022-12-18T09:04:56;1.70;;;1.42;;
35975;SDS011;22055;0.000;0.000;2022-12-18T09:07:24;2.38;;;1.90;;
35975;SDS011;22055;0.000;0.000;2022-12-18T09:12:40;2.50;;;1.92;;
35975;SDS011;22055;0.000;0.000;2022-12-18T09:15:10;2.45;;;1.70;;
35975;SDS011;22055;0.000;0.000;2022-12-18T09:17:38;2.40;;;1.90;;
35975;SDS011;22055;0.000;0.000;2022-12-18T09:20:06;2.10;;;1.80;;
35975;SDS011;22055;0.000;0.000;2022-12-18T09:22:35;2.38;;;1.80;;
35975;SDS011;22055;0.000;0.000;2022-12-18T09:25:05;2.45;;;1.98;;
35975;SDS011;22055;0.000;0.000;2022-12-18T09:27:40;2.05;;;1.38;;
35975;SDS011;22055;0.000;0.000;2022-12-18T09:30:09;1.60;;;1.37;;
35975;SDS011;22055;0.000;0.000;2022-12-18T09:32:37;1.50;;;1.40;;
35975;SDS011;22055;0.000;0.000;2022-12-18T09:35:09;1.50;;;1.40;;
35975;SDS011;22055;0.000;0.000;2022-12-18T09:38:01;1.65;;;1.30;;
35975;SDS011;22055;0.000;0.000;2022-12-18T09:43:47;1.83;;;1.50;;
35975;SDS011;22055;0.000;0.000;2022-12-18T09:46:38;1.25;;;1.10;;
35975;SDS011;22055;0.000;0.000;2022-12-18T09:49:32;1.38;;;1.27;;
35975;SDS011;22055;0.000;0.000;2022-12-18T09:54:46;2.10;;;1.60;;
35975;SDS011;22055;0.000;0.000;2022-12-18T09:57:17;2.50;;;1.80;;
35975;SDS011;22055;0.000;0.000;2022-12-18T09:59:47;1.95;;;1.67;;
35975;SDS011;22055;0.000;0.000;2022-12-18T10:05:30;3.03;;;1.80;;
35975;SDS011;22055;0.000;0.000;2022-12-18T10:08:24;3.13;;;2.22;;
35975;SDS011;22055;0.000;0.000;2022-12-18T10:14:08;1.73;;;1.52;;
35975;SDS011;22055;0.000;0.000;2022-12-18T10:16:47;2.20;;;1.70;;
35975;SDS011;22055;0.000;0.000;2022-12-18T10:19:47;1.70;;;1.40;;
35975;SDS011;22055;0.000;0.000;2022-12-18T10:22:26;1.88;;;1.33;;
35975;SDS011;22055;0.000;0.000;2022-12-18T10:27:51;1.20;;;1.10;;
35975;SDS011;22055;0.000;0.000;2022-12-18T10:30:21;1.42;;;1.30;;
35975;SDS011;22055;0.000;0.000;2022-12-18T10:32:49;1.40;;;1.17;;
35975;SDS011;22055;0.000;0.000;2022-12-18T10:35:23;1.85;;;1.13;;
35975;SDS011;22055;0.000;0.000;2022-12-18T10:40:33;1.92;;;1.35;;
35975;SDS011;22055;0.000;0.000;2022-12-18T10:43:13;1.50;;;1.15;;
35975;SDS011;22055;0.000;0.000;2022-12-18T10:45:41;1.88;;;1.50;;
35975;SDS011;22055;0.000;0.000;2022-12-18T10:48:21;1.30;;;1.20;;
35975;SDS011;22055;0.000;0.000;2022-12-18T10:50:51;1.75;;;1.55;;
35975;SDS011;22055;0.000;0.000;2022-12-18T10:53:25;1.35;;;1.23;;
35975;SDS011;22055;0.000;0.000;2022-12-18T10:55:55;1.98;;;1.48;;
35975;SDS011;22055;0.000;0.000;2022-12-18T10:58:44;1.40;;;1.30;;
35975;SDS011;22055;0.000;0.000;2022-12-18T11:07:03;1.73;;;1.23;;
35975;SDS011;22055;0.000;0.000;2022-12-18T11:09:35;1.63;;;1.48;;
35975;SDS011;22055;0.000;0.000;2022-12-18T11:14:45;1.83;;;1.42;;
35975;SDS011;22055;0.000;0.000;2022-12-18T11:17:29;1.77;;;1.35;;
35975;SDS011;22055;0.000;0.000;2022-12-18T11:23:26;2.03;;;1.63;;
35975;SDS011;22055;0.000;0.000;2022-12-18T11:25:54;2.42;;;1.60;;
35975;SDS011;22055;0.000;0.000;2022-12-18T11:28:27;1.20;;;1.10;;
35975;SDS011;22055;0.000;0.000;2022-12-18T11:31:12;1.60;;;1.20;;
35975;SDS011;22055;0.000;0.000;2022-12-18T11:33:54;1.25;;;1.15;;
35975;SDS011;22055;0.000;0.000;2022-12-18T11:36:32;1.58;;;1.08;;
35975;SDS011;22055;0.000;0.000;2022-12-18T11:39:07;1.55;;;1.40;;
35975;SDS011;22055;0.000;0.000;2022-12-18T11:42:08;1.80;;;1.50;;
35975;SDS011;22055;0.000;0.000;2022-12-18T11:50:05;3.13;;;2.20;;
35975;SDS011;22055;0.000;0.000;2022-12-18T11:55:44;3.63;;;2.20;;
35975;SDS011;22055;0.000;0.000;2022-12-18T12:01:06;3.13;;;1.92;;
35975;SDS011;22055;0.000;0.000;2022-12-18T12:06:20;2.38;;;1.63;;
35975;SDS011;22055;0.000;0.000;2022-12-18T12:20:40;2.10;;;1.73;;
35975;SDS011;22055;0.000;0.000;2022-12-18T12:25:43;2.38;;;1.63;;
35975;SDS011;22055;0.000;0.000;2022-12-18T12:34:20;2.60;;;1.75;;
35975;SDS011;22055;0.000;0.000;2022-12-18T12:36:52;2.38;;;1.65;;
35975;SDS011;22055;0.000;0.000;2022-12-18T12:39:25;2.08;;;1.60;;
35975;SDS011;22055;0.000;0.000;2022-12-18T12:41:59;1.48;;;1.38;;
35975;SDS011;22055;0.000;0.000;2022-12-18T12:53:40;3.25;;;2.20;;
35975;SDS011;22055;0.000;0.000;2022-12-18T13:02:20;2.97;;;1.98;;
35975;SDS011;22055;0.000;0.000;2022-12-18T13:08:08;2.72;;;1.90;;
35975;SDS011;22055;0.000;0.000;2022-12-18T13:10:39;2.03;;;1.77;;
35975;SDS011;22055;0.000;0.000;2022-12-18T13:13:27;2.65;;;2.00;;
35975;SDS011;22055;0.000;0.000;2022-12-18T13:16:08;2.25;;;1.80;;
35975;SDS011;22055;0.000;0.000;2022-12-18T13:18:36;2.30;;;1.98;;
35975;SDS011;22055;0.000;0.000;2022-12-18T13:21:21;2.92;;;1.92;;
35975;SDS011;22055;0.000;0.000;2022-12-18T13:26:43;1.83;;;1.55;;
35975;SDS011;22055;0.000;0.000;2022-12-18T13:29:55;2.15;;;1.70;;
35975;SDS011;22055;0.000;0.000;2022-12-18T13:41:25;2.22;;;1.60;;
35975;SDS011;22055;0.000;0.000;2022-12-18T13:47:31;3.03;;;1.98;;
35975;SDS011;22055;0.000;0.000;2022-12-18T13:50:00;2.85;;;1.80;;
35975;SDS011;22055;0.000;0.000;2022-12-18T13:55:39;2.05;;;1.60;;
35975;SDS011;22055;0.000;0.000;2022-12-18T13:58:36;1.95;;;1.63;;
35975;SDS011;22055;0.000;0.000;2022-12-18T14:01:24;1.90;;;1.30;;
35975;SDS011;22055;0.000;0.000;2022-12-18T14:04:38;1.30;;;1.20;;
35975;SDS011;22055;0.000;0.000;2022-12-18T14:06:47;1.40;;;1.30;;
35975;SDS011;22055;0.000;0.000;2022-12-18T14:12:46;2.28;;;1.83;;
35975;SDS011;22055;0.000;0.000;2022-12-18T14:15:44;2.10;;;1.50;;
35975;SDS011;22055;0.000;0.000;2022-12-18T14:18:20;1.60;;;1.50;;
35975;SDS011;22055;0.000;0.000;2022-12-18T14:20:50;1.63;;;1.52;;
35975;SDS011;22055;0.000;0.000;2022-12-18T14:23:36;1.67;;;1.58;;
35975;SDS011;22055;0.000;0.000;2022-12-18T14:26:20;1.42;;;1.30;;
35975;SDS011;22055;0.000;0.000;2022-12-18T14:34:48;2.15;;;1.85;;
35975;SDS011;22055;0.000;0.000;2022-12-18T14:37:30;3.13;;;2.10;;
35975;SDS011;22055;0.000;0.000;2022-12-18T14:39:58;3.50;;;2.50;;
35975;SDS011;22055;0.000;0.000;2022-12-18T14:42:27;2.60;;;2.00;;
35975;SDS011;22055;0.000;0.000;2022-12-18T14:47:51;4.10;;;2.47;;
35975;SDS011;22055;0.000;0.000;2022-12-18T14:50:55;3.72;;;2.40;;
35975;SDS011;22055;0.000;0.000;2022-12-18T14:59:48;3.33;;;2.20;;
35975;SDS011;22055;0.000;0.000;2022-12-18T15:02:28;2.42;;;1.90;;
35975;SDS011;22055;0.000;0.000;2022-12-18T15:11:01;1.50;;;1.40;;
35975;SDS011;22055;0.000;0.000;2022-12-18T15:13:29;1.58;;;1.48;;
35975;SDS011;22055;0.000;0.000;2022-12-18T15:16:10;1.52;;;1.42;;
35975;SDS011;22055;0.000;0.000;2022-12-18T15:18:41;1.48;;;1.38;;
35975;SDS011;22055;0.000;0.000;2022-12-18T15:21:21;3.83;;;2.25;;
35975;SDS011;22055;0.000;0.000;2022-12-18T15:23:50;3.58;;;2.45;;
35975;SDS011;22055;0.000;0.000;2022-12-18T15:26:20;3.35;;;2.17;;
35975;SDS011;22055;0.000;0.000;2022-12-18T15:31:39;4.00;;;2.70;;
35975;SDS011;22055;0.000;0.000;2022-12-18T15:34:41;3.28;;;2.42;;
35975;SDS011;22055;0.000;0.000;2022-12-18T15:39:54;3.10;;;2.40;;
35975;SDS011;22055;0.000;0.000;2022-12-18T15:42:22;3.10;;;2.50;;
35975;SDS011;22055;0.000;0.000;2022-12-18T15:45:10;4.20;;;2.45;;
35975;SDS011;22055;0.000;0.000;2022-12-18T15:47:56;4.53;;;2.80;;
35975;SDS011;22055;0.000;0.000;2022-12-18T15:50:27;2.88;;;2.28;;
35975;SDS011;22055;0.000;0.000;2022-12-18T15:52:58;3.78;;;2.50;;
35975;SDS011;22055;0.000;0.000;2022-12-18T15:55:25;2.85;;;2.08;;
35975;SDS011;22055;0.000;0.000;2022-12-18T15:58:11;3.28;;;2.13;;
35975;SDS011;22055;0.000;0.000;2022-12-18T16:00:39;2.72;;;2.20;;
35975;SDS011;22055;0.000;0.000;2022-12-18T16:03:10;2.92;;;2.28;;
35975;SDS011;22055;0.000;0.000;2022-12-18T16:05:38;2.75;;;2.20;;
35975;SDS011;22055;0.000;0.000;2022-12-18T16:08:05;2.80;;;2.28;;
35975;SDS011;22055;0.000;0.000;2022-12-18T16:13:19;3.80;;;2.60;;
35975;SDS011;22055;0.000;0.000;2022-12-18T16:15:55;2.70;;;2.20;;
35975;SDS011;22055;0.000;0.000;2022-12-18T16:18:24;2.88;;;2.22;;
35975;SDS011;22055;0.000;0.000;2022-12-18T16:20:52;4.20;;;2.50;;
35975;SDS011;22055;0.000;0.000;2022-12-18T16:23:23;3.40;;;2.67;;
35975;SDS011;22055;0.000;0.000;2022-12-18T16:28:39;2.60;;;2.10;;
35975;SDS011;22055;0.000;0.000;2022-12-18T16:31:08;3.28;;;2.20;;
35975;SDS011;22055;0.000;0.000;2022-12-18T16:33:35;3.38;;;2.30;;
35975;SDS011;22055;0.000;0.000;2022-12-18T16:36:03;3.33;;;2.42;;
35975;SDS011;22055;0.000;0.000;2022-12-18T16:38:30;3.08;;;2.05;;
35975;SDS011;22055;0.000;0.000;2022-12-18T16:41:22;3.40;;;2.50;;
35975;SDS011;22055;0.000;0.000;2022-12-18T16:43:59;4.25;;;2.33;;
35975;SDS011;22055;0.000;0.000;2022-12-18T16:46:27;4.35;;;2.58;;
35975;SDS011;22055;0.000;0.000;2022-12-18T16:48:58;3.58;;;2.40;;
35975;SDS011;22055;0.000;0.000;2022-12-18T16:51:26;3.85;;;2.58;;
35975;SDS011;22055;0.000;0.000;2022-12-18T16:53:57;3.97;;;2.10;;
35975;SDS011;22055;0.000;0.000;2022-12-18T16:56:25;3.58;;;2.28;;
35975;SDS011;22055;0.000;0.000;2022-12-18T17:01:41;3.45;;;2.30;;
35975;SDS011;22055;0.000;0.000;2022-12-18T17:18:47;3.42;;;2.40;;
35975;SDS011;22055;0.000;0.000;2022-12-18T17:21:15;3.83;;;3.50;;
35975;SDS011;22055;0.000;0.000;2022-12-18T17:29:38;3.55;;;2.60;;
35975;SDS011;22055;0.000;0.000;2022-12-18T17:32:16;4.22;;;2.58;;
35975;SDS011;22055;0.000;0.000;2022-12-18T17:38:04;4.47;;;2.63;;
35975;SDS011;22055;0.000;0.000;2022-12-18T17:44:31;4.13;;;2.45;;
35975;SDS011;22055;0.000;0.000;2022-12-18T17:47:12;4.07;;;2.58;;
35975;SDS011;22055;0.000;0.000;2022-12-18T17:49:40;4.07;;;2.58;;
35975;SDS011;22055;0.000;0.000;2022-12-18T17:55:15;3.25;;;2.50;;
35975;SDS011;22055;0.000;0.000;2022-12-18T17:57:45;5.90;;;2.60;;
35975;SDS011;22055;0.000;0.000;2022-12-18T18:00:14;2.70;;;2.22;;
35975;SDS011;22055;0.000;0.000;2022-12-18T18:02:43;3.15;;;2.38;;
35975;SDS011;22055;0.000;0.000;2022-12-18T18:05:11;3.03;;;2.20;;
35975;SDS011;22055;0.000;0.000;2022-12-18T18:10:25;3.85;;;2.78;;
35975;SDS011;22055;0.000;0.000;2022-12-18T18:12:54;3.30;;;2.58;;
35975;SDS011;22055;0.000;0.000;2022-12-18T18:15:53;3.70;;;2.75;;
35975;SDS011;22055;0.000;0.000;2022-12-18T18:18:28;3.70;;;2.67;;
35975;SDS011;22055;0.000;0.000;2022-12-18T18:20:56;4.40;;;2.60;;
35975;SDS011;22055;0.000;0.000;2022-12-18T18:23:49;3.28;;;2.45;;
35975;SDS011;22055;0.000;0.000;2022-12-18T18:29:44;3.97;;;2.30;;
35975;SDS011;22055;0.000;0.000;2022-12-18T18:32:12;3.50;;;2.30;;
35975;SDS011;22055;0.000;0.000;2022-12-18T18:34:42;3.25;;;2.38;;
35975;SDS011;22055;0.000;0.000;2022-12-18T18:37:15;3.10;;;2.10;;
35975;SDS011;22055;0.000;0.000;2022-12-18T18:58:21;3.97;;;2.42;;
35975;SDS011;22055;0.000;0.000;2022-12-18T19:04:01;2.88;;;2.25;;
35975;SDS011;22055;0.000;0.000;2022-12-18T19:09:03;3.58;;;2.47;;
35975;SDS011;22055;0.000;0.000;2022-12-18T19:14:43;4.07;;;2.90;;
35975;SDS011;22055;0.000;0.000;2022-12-18T19:17:11;3.53;;;2.35;;
35975;SDS011;22055;0.000;0.000;2022-12-18T19:38:56;3.45;;;2.67;;
35975;SDS011;22055;0.000;0.000;2022-12-18T19:41:50;3.85;;;2.60;;
35975;SDS011;22055;0.000;0.000;2022-12-18T19:47:30;3.25;;;2.47;;
35975;SDS011;22055;0.000;0.000;2022-12-18T19:49:59;3.53;;;2.42;;
35975;SDS011;22055;0.000;0.000;2022-12-18T19:52:44;3.00;;;2.45;;
35975;SDS011;22055;0.000;0.000;2022-12-18T19:55:14;3.20;;;2.55;;
35975;SDS011;22055;0.000;0.000;2022-12-18T19:57:47;2.95;;;2.30;;
35975;SDS011;22055;0.000;0.000;2022-12-18T20:00:18;4.88;;;3.10;;
35975;SDS011;22055;0.000;0.000;2022-12-18T20:02:48;3.50;;;2.40;;
35975;SDS011;22055;0.000;0.000;2022-12-18T20:05:42;3.78;;;2.65;;
35975;SDS011;22055;0.000;0.000;2022-12-18T20:12:04;3.83;;;2.55;;
35975;SDS011;22055;0.000;0.000;2022-12-18T20:14:35;4.00;;;2.60;;
35975;SDS011;22055;0.000;0.000;2022-12-18T20:17:03;4.00;;;3.00;;